createdAt,value
2023-01-13T00:21:55.861Z,527.00
2023-01-13T00:22:55.836Z,518.00
2023-01-13T00:23:55.803Z,525.00
2023-01-13T00:24:55.774Z,517.00
2023-01-13T00:25:55.740Z,517.00
2023-01-13T00:26:55.720Z,526.00
2023-01-13T00:27:55.691Z,523.00
2023-01-13T00:28:55.666Z,526.00
2023-01-13T00:29:55.624Z,518.00
2023-01-13T00:30:55.647Z,524.00
2023-01-13T00:31:55.582Z,518.00
2023-01-13T00:32:55.527Z,513.00
2023-01-13T00:33:55.494Z,520.00
2023-01-13T00:34:55.473Z,532.00
2023-01-13T00:35:55.441Z,528.00
2023-01-13T00:36:55.415Z,516.00
2023-01-13T00:37:55.367Z,516.00
2023-01-13T00:38:55.343Z,516.00
2023-01-13T00:39:55.303Z,514.00
2023-01-13T00:40:55.278Z,525.00
2023-01-13T00:41:55.252Z,528.00
2023-01-13T00:42:55.224Z,520.00
2023-01-13T00:43:55.197Z,513.00
2023-01-13T00:44:55.174Z,522.00
2023-01-13T00:45:55.143Z,527.00
2023-01-13T00:46:55.097Z,533.00
2023-01-13T00:47:55.058Z,518.00
2023-01-13T00:48:55.022Z,508.00
2023-01-13T00:49:54.986Z,524.00
2023-01-13T00:50:54.966Z,535.00
2023-01-13T00:51:54.929Z,526.00
2023-01-13T00:52:54.897Z,525.00
2023-01-13T00:53:54.869Z,522.00
2023-01-13T00:54:54.832Z,524.00
2023-01-13T00:55:54.844Z,521.00
2023-01-13T00:56:54.764Z,531.00
2023-01-13T00:57:54.733Z,519.00
2023-01-13T00:58:54.711Z,532.00
2023-01-13T00:59:54.673Z,526.00
2023-01-13T01:00:54.720Z,518.00
2023-01-13T01:01:54.743Z,533.00
2023-01-13T01:02:54.563Z,507.00
2023-01-13T01:03:54.539Z,534.00
2023-01-13T01:04:54.489Z,532.00
2023-01-13T01:05:54.474Z,512.00
2023-01-13T01:06:54.440Z,530.00
2023-01-13T01:07:54.391Z,513.00
2023-01-13T01:08:54.366Z,531.00
2023-01-13T01:09:54.329Z,538.00
2023-01-13T01:10:54.301Z,537.00
2023-01-13T01:11:54.261Z,524.00
2023-01-13T01:12:54.227Z,544.00
2023-01-13T01:13:54.204Z,540.00
2023-01-13T01:14:54.178Z,530.00
2023-01-13T01:15:54.157Z,521.00
2023-01-13T01:16:54.097Z,525.00
2023-01-13T01:17:54.068Z,537.00
2023-01-13T01:18:54.034Z,516.00
2023-01-13T01:19:54.003Z,539.00
2023-01-13T01:20:53.960Z,530.00
2023-01-13T01:21:53.924Z,538.00
2023-01-13T01:22:53.896Z,543.00
2023-01-13T01:23:53.838Z,536.00
2023-01-13T01:24:53.822Z,539.00
2023-01-13T01:25:53.765Z,529.00
2023-01-13T01:26:53.747Z,533.00
2023-01-13T01:27:53.717Z,538.00
2023-01-13T01:28:53.685Z,536.00
2023-01-13T01:29:53.630Z,534.00
2023-01-13T01:30:53.592Z,538.00
2023-01-13T01:31:53.559Z,540.00
2023-01-13T01:32:53.519Z,547.00
2023-01-13T01:33:53.500Z,539.00
2023-01-13T01:34:53.446Z,533.00
2023-01-13T01:35:53.427Z,530.00
2023-01-13T01:36:53.397Z,541.00
2023-01-13T01:37:53.347Z,538.00
2023-01-13T01:38:53.316Z,534.00
2023-01-13T01:39:53.282Z,537.00
2023-01-13T01:40:53.263Z,552.00
2023-01-13T01:41:53.243Z,540.00
2023-01-13T01:42:53.199Z,541.00
2023-01-13T01:43:53.172Z,535.00
2023-01-13T01:44:53.141Z,536.00
2023-01-13T01:45:53.088Z,553.00
2023-01-13T01:46:53.211Z,537.00
2023-01-13T01:47:53.045Z,537.00
2023-01-13T01:48:53.002Z,539.00
2023-01-13T01:49:52.988Z,537.00
2023-01-13T01:50:52.954Z,538.00
2023-01-13T01:51:52.923Z,539.00
2023-01-13T01:52:52.876Z,536.00
2023-01-13T01:53:52.846Z,529.00
2023-01-13T01:54:52.814Z,512.00
2023-01-13T01:55:52.785Z,530.00
2023-01-13T01:56:52.752Z,542.00
2023-01-13T01:57:52.718Z,540.00
2023-01-13T01:58:52.686Z,539.00
2023-01-13T01:59:52.647Z,529.00
2023-01-13T02:00:52.794Z,533.00
2023-01-13T02:01:52.764Z,526.00
2023-01-13T02:03:52.530Z,535.00
2023-01-13T02:04:52.516Z,538.00
2023-01-13T02:05:52.493Z,531.00
2023-01-13T02:06:52.444Z,537.00
2023-01-13T02:07:52.463Z,534.00
2023-01-13T02:08:52.377Z,545.00
2023-01-13T02:09:52.357Z,547.00
2023-01-13T02:10:52.319Z,541.00
2023-01-13T02:11:52.295Z,540.00
2023-01-13T02:12:52.267Z,544.00
2023-01-13T02:13:52.237Z,538.00
2023-01-13T02:14:52.202Z,550.00
2023-01-13T02:15:52.170Z,547.00
2023-01-13T02:16:52.137Z,548.00
2023-01-13T02:17:52.144Z,535.00
2023-01-13T02:18:52.098Z,525.00
2023-01-13T02:19:52.048Z,539.00
2023-01-13T02:20:52.020Z,537.00
2023-01-13T02:21:51.989Z,541.00
2023-01-13T02:22:51.960Z,547.00
2023-01-13T02:23:51.920Z,528.00
2023-01-13T02:24:51.926Z,543.00
2023-01-13T02:25:51.859Z,542.00
2023-01-13T02:26:51.838Z,547.00
2023-01-13T02:27:51.813Z,530.00
2023-01-13T02:28:51.784Z,536.00
2023-01-13T02:29:51.741Z,536.00
2023-01-13T02:30:51.722Z,542.00
2023-01-13T02:31:51.726Z,541.00
2023-01-13T02:32:51.654Z,549.00
2023-01-13T02:33:51.631Z,552.00
2023-01-13T02:34:51.601Z,551.00
2023-01-13T02:35:51.590Z,541.00
2023-01-13T02:36:51.533Z,536.00
2023-01-13T02:37:51.487Z,546.00
2023-01-13T02:38:51.460Z,543.00
2023-01-13T02:39:51.424Z,541.00
2023-01-13T02:40:51.400Z,541.00
2023-01-13T02:41:51.360Z,545.00
2023-01-13T02:42:51.351Z,551.00
2023-01-13T02:43:51.299Z,543.00
2023-01-13T02:44:51.262Z,541.00
2023-01-13T02:45:51.278Z,544.00
2023-01-13T02:46:51.190Z,549.00
2023-01-13T02:47:51.159Z,549.00
2023-01-13T02:48:51.136Z,561.00
2023-01-13T02:49:51.088Z,542.00
2023-01-13T02:50:51.083Z,546.00
2023-01-13T02:51:51.026Z,545.00
2023-01-13T02:52:50.998Z,544.00
2023-01-13T02:53:50.984Z,541.00
2023-01-13T02:54:50.936Z,539.00
2023-01-13T02:55:50.926Z,542.00
2023-01-13T02:56:50.869Z,545.00
2023-01-13T02:57:50.834Z,549.00
2023-01-13T02:58:50.808Z,551.00
2023-01-13T02:59:50.756Z,549.00
2023-01-13T03:00:50.745Z,544.00
2023-01-13T03:01:50.898Z,548.00
2023-01-13T03:02:50.684Z,544.00
2023-01-13T03:03:50.624Z,561.00
2023-01-13T03:04:50.577Z,552.00
2023-01-13T03:05:50.544Z,548.00
2023-01-13T03:06:50.517Z,548.00
2023-01-13T03:07:50.447Z,555.00
2023-01-13T03:08:50.437Z,550.00
2023-01-13T03:09:50.392Z,563.00
2023-01-13T03:10:50.363Z,550.00
2023-01-13T03:11:50.321Z,553.00
2023-01-13T03:12:50.300Z,550.00
2023-01-13T03:13:50.278Z,559.00
2023-01-13T03:14:50.230Z,554.00
2023-01-13T03:15:50.189Z,545.00
2023-01-13T03:16:50.174Z,551.00
2023-01-13T03:17:50.114Z,552.00
2023-01-13T03:18:50.057Z,553.00
2023-01-13T03:19:50.027Z,543.00
2023-01-13T03:20:49.997Z,553.00
2023-01-13T03:21:49.961Z,554.00
2023-01-13T03:22:49.931Z,557.00
2023-01-13T03:23:49.892Z,543.00
2023-01-13T03:24:49.869Z,556.00
2023-01-13T03:25:49.827Z,552.00
2023-01-13T03:26:49.798Z,552.00
2023-01-13T03:27:49.767Z,540.00
2023-01-13T03:28:49.725Z,549.00
2023-01-13T03:29:49.703Z,544.00
2023-01-13T03:30:49.848Z,563.00
2023-01-13T03:31:49.633Z,559.00
2023-01-13T03:32:49.591Z,562.00
2023-01-13T03:33:49.547Z,563.00
2023-01-13T03:34:49.535Z,562.00
2023-01-13T03:35:49.466Z,543.00
2023-01-13T03:36:49.447Z,565.00
2023-01-13T03:37:49.404Z,569.00
2023-01-13T03:38:49.375Z,561.00
2023-01-13T03:39:49.338Z,566.00
2023-01-13T03:40:49.304Z,552.00
2023-01-13T03:41:49.276Z,556.00
2023-01-13T03:42:49.241Z,562.00
2023-01-13T03:43:49.191Z,559.00
2023-01-13T03:44:49.224Z,548.00
2023-01-13T03:45:49.140Z,550.00
2023-01-13T03:46:49.094Z,551.00
2023-01-13T03:47:49.058Z,553.00
2023-01-13T03:48:49.013Z,559.00
2023-01-13T03:49:48.985Z,562.00
2023-01-13T03:50:48.948Z,556.00
2023-01-13T03:51:48.913Z,552.00
2023-01-13T04:06:48.388Z,560.00
2023-01-13T06:26:43.333Z,572.00
2023-01-13T06:28:43.263Z,574.00
2023-01-13T06:29:43.209Z,570.00
2023-01-13T06:30:43.183Z,566.00
2023-01-13T06:31:43.182Z,573.00
2023-01-13T06:32:43.099Z,587.00
2023-01-13T06:33:43.050Z,595.00
2023-01-13T06:34:43.044Z,594.00
2023-01-13T06:35:42.976Z,588.00
2023-01-13T06:36:42.938Z,600.00
2023-01-13T06:37:42.900Z,615.00
2023-01-13T06:38:42.849Z,625.00
2023-01-13T06:39:42.830Z,639.00
2023-01-13T06:40:42.772Z,642.00
2023-01-13T06:41:42.710Z,652.00
2023-01-13T06:42:42.670Z,658.00
2023-01-13T06:43:42.653Z,663.00
2023-01-13T08:13:41.785Z,989.00
2023-01-13T08:44:40.158Z,766.00
2023-01-13T08:50:39.843Z,856.00
2023-01-13T08:54:39.592Z,904.00
2023-01-13T08:55:39.568Z,906.00
2023-01-13T08:56:39.551Z,912.00
2023-01-13T08:57:39.450Z,923.00
2023-01-13T08:58:39.363Z,943.00
2023-01-13T08:59:39.318Z,988.00
2023-01-13T09:00:39.277Z,986.00
2023-01-13T09:01:39.330Z,1009.00
2023-01-13T09:02:39.166Z,1016.00
2023-01-13T09:03:39.103Z,1016.00
2023-01-13T09:04:39.129Z,1029.00
2023-01-13T09:05:38.984Z,1022.00
2023-01-13T09:06:38.939Z,1031.00
2023-01-13T11:50:30.894Z,2150.00
2023-01-13T11:51:30.830Z,2173.00
2023-01-13T11:52:30.833Z,2215.00
2023-01-13T11:53:30.712Z,2224.00
2023-01-13T11:54:30.643Z,2224.00
2023-01-13T11:55:30.617Z,2251.00
2023-01-13T11:56:30.535Z,2238.00
2023-01-13T11:57:30.519Z,2238.00
2023-01-13T11:58:33.765Z,2249.00
2023-01-13T11:59:31.354Z,2251.00
2023-01-13T12:00:30.285Z,2251.00
2023-01-13T12:01:30.311Z,2256.00
2023-01-13T12:02:30.176Z,2272.00
2023-01-13T12:03:30.151Z,2306.00
2023-01-13T12:04:30.051Z,2335.00
2023-01-13T12:05:29.999Z,2318.00
2023-01-13T12:06:29.930Z,2281.00
2023-01-13T12:07:29.845Z,2308.00
2023-01-13T12:08:29.795Z,2323.00
2023-01-13T12:09:29.730Z,2358.00
2023-01-13T12:10:29.667Z,2337.00
2023-01-13T12:11:29.601Z,2280.00
2023-01-13T12:12:29.538Z,2285.00
2023-01-13T12:13:29.478Z,2265.00
2023-01-13T12:14:29.406Z,2261.00
2023-01-13T12:15:29.336Z,1968.00
2023-01-13T12:16:29.405Z,1853.00
2023-01-13T12:17:29.231Z,1677.00
2023-01-13T12:18:29.172Z,1639.00
2023-01-13T12:19:29.105Z,1435.00
2023-01-13T12:20:29.045Z,1450.00
2023-01-13T12:21:28.999Z,1302.00
2023-01-13T12:22:28.946Z,1189.00
2023-01-13T15:08:19.758Z,1527.00
2023-01-13T15:09:19.712Z,1518.00
2023-01-13T15:10:19.679Z,1514.00
2023-01-13T15:11:19.664Z,1514.00
2023-01-13T15:12:19.593Z,1512.00
2023-01-13T15:13:19.560Z,1517.00
2023-01-13T15:14:19.490Z,1521.00
2023-01-13T15:15:19.470Z,1497.00
2023-01-13T15:16:19.524Z,1471.00
2023-01-13T15:17:19.381Z,1501.00
2023-01-13T15:18:19.334Z,1503.00
2023-01-13T15:19:19.296Z,1503.00
2023-01-13T15:20:19.272Z,1489.00
2023-01-13T15:21:19.215Z,1487.00
2023-01-13T15:22:19.155Z,1498.00
2023-01-13T15:23:19.127Z,1480.00
2023-01-13T15:24:19.071Z,1500.00
2023-01-13T15:25:19.038Z,1503.00
2023-01-13T15:26:18.985Z,1489.00
2023-01-13T15:27:18.951Z,1450.00
2023-01-13T19:17:09.737Z,1193.00
2023-01-13T19:18:09.679Z,1187.00
2023-01-13T19:19:09.612Z,1196.00
2023-01-13T19:20:09.587Z,1193.00
2023-01-13T19:21:09.554Z,1189.00
2023-01-13T19:22:09.490Z,1191.00
2023-01-13T19:23:09.452Z,1192.00
2023-01-13T19:24:09.413Z,1192.00
2023-01-13T19:25:09.376Z,1197.00
2023-01-13T19:26:09.353Z,1199.00
2023-01-13T19:27:09.302Z,1207.00
2023-01-13T19:28:09.286Z,1215.00
2023-01-13T19:29:09.239Z,1207.00
2023-01-13T19:30:09.204Z,1214.00
2023-01-13T19:31:09.191Z,1203.00
2023-01-13T19:32:09.129Z,1201.00
2023-01-13T19:33:09.089Z,1197.00
2023-01-13T19:34:09.055Z,1217.00
2023-01-13T19:35:09.024Z,1212.00
2023-01-13T19:36:08.983Z,1213.00
2023-01-13T19:37:08.938Z,1198.00
2023-01-13T19:38:08.908Z,1208.00
2023-01-13T19:47:09.096Z,1212.00
2023-01-13T22:42:01.423Z,1049.00
2023-01-13T22:51:01.063Z,1052.00
2023-01-13T22:52:01.037Z,1037.00
2023-01-13T22:53:00.989Z,1057.00
2023-01-13T22:54:00.948Z,1046.00
2023-01-13T22:55:00.933Z,1027.00
2023-01-13T22:56:00.859Z,1028.00
2023-01-13T22:57:00.831Z,1034.00
2023-01-13T22:58:00.770Z,1042.00
2023-01-13T22:59:00.729Z,1008.00
2023-01-13T23:00:00.700Z,1034.00
2023-01-13T23:01:00.666Z,1032.00
2023-01-13T23:02:00.641Z,974.00
2023-01-13T23:03:00.570Z,987.00
2023-01-13T23:04:00.693Z,978.00
2023-01-13T23:05:00.485Z,994.00
2023-01-13T23:06:00.446Z,1004.00
2023-01-13T23:07:00.403Z,1001.00
2023-01-13T23:08:00.379Z,1008.00
2023-01-13T23:09:00.323Z,1019.00
2023-01-13T23:10:00.287Z,1021.00
2023-01-13T23:11:00.241Z,999.00
2023-01-13T23:12:00.207Z,1019.00
2023-01-13T23:13:00.173Z,1033.00
2023-01-13T23:14:00.149Z,1009.00
2023-01-13T23:15:00.096Z,1008.00
2023-01-13T23:16:00.037Z,1009.00
2023-01-13T23:17:00.063Z,1023.00
2023-01-13T23:17:59.949Z,1006.00
2023-01-13T23:18:59.906Z,1025.00
2023-01-13T23:19:59.877Z,1019.00
2023-01-13T23:20:59.826Z,1014.00
2023-01-13T23:21:59.782Z,1033.00
2023-01-13T23:22:59.744Z,1032.00
2023-01-13T23:23:59.706Z,1024.00
2023-01-13T23:24:59.652Z,1019.00
2023-01-13T23:25:59.626Z,991.00
2023-01-13T23:26:59.566Z,1016.00
2023-01-13T23:27:59.534Z,1004.00
2023-01-13T23:28:59.499Z,1022.00
2023-01-13T23:29:59.449Z,1020.00
2023-01-13T23:30:59.591Z,1002.00
2023-01-13T23:31:59.371Z,1007.00
2023-01-13T23:32:59.328Z,1006.00
2023-01-13T23:33:59.271Z,992.00
2023-01-13T23:34:59.238Z,998.00
2023-01-13T23:35:59.194Z,996.00
2023-01-13T23:36:59.158Z,1014.00
2023-01-13T23:37:59.153Z,1016.00
2023-01-13T23:38:59.084Z,1027.00
2023-01-13T23:39:59.031Z,994.00
2023-01-13T23:40:58.987Z,1000.00
2023-01-13T23:41:58.955Z,1016.00
2023-01-13T23:42:58.917Z,1019.00
